sensor_id;sensor_type;location;lat;lon;timestamp;P1;durP1;ratioP1;P2;durP2;ratioP2
61322;SDS011;47203;48.428;11.974;2022-07-03T00:01:54;3.67;;;2.42;;
61322;SDS011;47203;48.428;11.974;2022-07-03T00:03:59;4.78;;;2.50;;
61322;SDS011;47203;48.428;11.974;2022-07-03T00:06:05;3.53;;;2.05;;
61322;SDS011;47203;48.428;11.974;2022-07-03T00:08:10;3.45;;;2.58;;
61322;SDS011;47203;48.428;11.974;2022-07-03T00:10:16;3.83;;;2.50;;
61322;SDS011;47203;48.428;11.974;2022-07-03T00:12:25;3.20;;;2.20;;
61322;SDS011;47203;48.428;11.974;2022-07-03T00:14:30;3.33;;;2.33;;
61322;SDS011;47203;48.428;11.974;2022-07-03T00:16:36;6.60;;;2.05;;
61322;SDS011;47203;48.428;11.974;2022-07-03T00:18:41;3.22;;;2.40;;
61322;SDS011;47203;48.428;11.974;2022-07-03T00:20:47;3.90;;;2.60;;
61322;SDS011;47203;48.428;11.974;2022-07-03T00:23:02;3.55;;;2.78;;
61322;SDS011;47203;48.428;11.974;2022-07-03T00:25:13;6.55;;;2.70;;
61322;SDS011;47203;48.428;11.974;2022-07-03T00:27:19;4.18;;;2.28;;
61322;SDS011;47203;48.428;11.974;2022-07-03T00:29:31;3.22;;;2.33;;
61322;SDS011;47203;48.428;11.974;2022-07-03T00:31:43;4.25;;;2.85;;
61322;SDS011;47203;48.428;11.974;2022-07-03T00:33:51;3.42;;;2.35;;
61322;SDS011;47203;48.428;11.974;2022-07-03T00:36:01;4.38;;;2.83;;
61322;SDS011;47203;48.428;11.974;2022-07-03T00:38:07;4.57;;;2.40;;
61322;SDS011;47203;48.428;11.974;2022-07-03T00:40:14;3.80;;;2.22;;
61322;SDS011;47203;48.428;11.974;2022-07-03T00:42:20;2.42;;;1.90;;
61322;SDS011;47203;48.428;11.974;2022-07-03T00:44:25;3.67;;;2.53;;
61322;SDS011;47203;48.428;11.974;2022-07-03T00:46:37;3.92;;;2.72;;
61322;SDS011;47203;48.428;11.974;2022-07-03T00:48:45;3.60;;;2.42;;
61322;SDS011;47203;48.428;11.974;2022-07-03T00:50:53;4.05;;;2.10;;
61322;SDS011;47203;48.428;11.974;2022-07-03T00:53:00;3.90;;;2.75;;
61322;SDS011;47203;48.428;11.974;2022-07-03T00:55:08;3.38;;;2.40;;
61322;SDS011;47203;48.428;11.974;2022-07-03T00:57:21;3.60;;;2.63;;
61322;SDS011;47203;48.428;11.974;2022-07-03T00:59:33;4.30;;;2.80;;
61322;SDS011;47203;48.428;11.974;2022-07-03T01:01:38;3.80;;;3.03;;
61322;SDS011;47203;48.428;11.974;2022-07-03T01:03:46;3.60;;;2.55;;
61322;SDS011;47203;48.428;11.974;2022-07-03T01:06:09;3.45;;;2.63;;
61322;SDS011;47203;48.428;11.974;2022-07-03T01:08:20;4.05;;;2.50;;
61322;SDS011;47203;48.428;11.974;2022-07-03T01:10:43;3.97;;;3.10;;
61322;SDS011;47203;48.428;11.974;2022-07-03T01:13:00;4.32;;;2.50;;
61322;SDS011;47203;48.428;11.974;2022-07-03T01:15:19;3.67;;;2.60;;
61322;SDS011;47203;48.428;11.974;2022-07-03T01:17:41;4.22;;;2.65;;
61322;SDS011;47203;48.428;11.974;2022-07-03T01:20:00;3.80;;;2.70;;
61322;SDS011;47203;48.428;11.974;2022-07-03T01:24:43;3.53;;;2.13;;
61322;SDS011;47203;48.428;11.974;2022-07-03T01:27:10;3.58;;;2.20;;
61322;SDS011;47203;48.428;11.974;2022-07-03T01:29:23;3.95;;;2.33;;
61322;SDS011;47203;48.428;11.974;2022-07-03T01:31:39;3.03;;;2.40;;
61322;SDS011;47203;48.428;11.974;2022-07-03T01:33:50;4.30;;;2.85;;
61322;SDS011;47203;48.428;11.974;2022-07-03T01:35:58;3.85;;;2.58;;
61322;SDS011;47203;48.428;11.974;2022-07-03T01:38:09;3.10;;;2.05;;
61322;SDS011;47203;48.428;11.974;2022-07-03T01:40:17;4.28;;;3.08;;
61322;SDS011;47203;48.428;11.974;2022-07-03T01:42:25;4.30;;;2.47;;
61322;SDS011;47203;48.428;11.974;2022-07-03T01:44:37;3.20;;;2.25;;
61322;SDS011;47203;48.428;11.974;2022-07-03T01:46:45;4.47;;;2.70;;
61322;SDS011;47203;48.428;11.974;2022-07-03T01:48:50;4.70;;;2.78;;
61322;SDS011;47203;48.428;11.974;2022-07-03T01:50:59;4.45;;;2.90;;
61322;SDS011;47203;48.428;11.974;2022-07-03T01:53:07;3.60;;;2.45;;
61322;SDS011;47203;48.428;11.974;2022-07-03T01:55:15;3.58;;;2.55;;
61322;SDS011;47203;48.428;11.974;2022-07-03T01:57:27;3.78;;;2.50;;
61322;SDS011;47203;48.428;11.974;2022-07-03T01:59:46;3.60;;;2.30;;
61322;SDS011;47203;48.428;11.974;2022-07-03T02:01:58;3.53;;;2.67;;
61322;SDS011;47203;48.428;11.974;2022-07-03T02:04:20;4.03;;;2.90;;
61322;SDS011;47203;48.428;11.974;2022-07-03T02:06:35;3.20;;;2.75;;
61322;SDS011;47203;48.428;11.974;2022-07-03T02:08:48;3.00;;;2.42;;
61322;SDS011;47203;48.428;11.974;2022-07-03T02:11:27;3.20;;;2.25;;
61322;SDS011;47203;48.428;11.974;2022-07-03T02:13:44;3.55;;;2.35;;
61322;SDS011;47203;48.428;11.974;2022-07-03T02:15:59;3.83;;;2.40;;
61322;SDS011;47203;48.428;11.974;2022-07-03T02:18:07;4.63;;;2.80;;
61322;SDS011;47203;48.428;11.974;2022-07-03T02:20:28;3.43;;;2.57;;
61322;SDS011;47203;48.428;11.974;2022-07-03T02:22:40;4.00;;;2.50;;
61322;SDS011;47203;48.428;11.974;2022-07-03T02:24:49;3.67;;;2.63;;
61322;SDS011;47203;48.428;11.974;2022-07-03T02:26:54;3.85;;;2.38;;
61322;SDS011;47203;48.428;11.974;2022-07-03T02:29:12;3.90;;;2.72;;
61322;SDS011;47203;48.428;11.974;2022-07-03T02:31:24;3.28;;;2.40;;
61322;SDS011;47203;48.428;11.974;2022-07-03T02:33:31;3.80;;;2.35;;
61322;SDS011;47203;48.428;11.974;2022-07-03T02:35:42;3.70;;;2.58;;
61322;SDS011;47203;48.428;11.974;2022-07-03T02:37:53;2.67;;;2.05;;
61322;SDS011;47203;48.428;11.974;2022-07-03T02:40:08;3.42;;;2.50;;
61322;SDS011;47203;48.428;11.974;2022-07-03T02:42:28;6.03;;;2.40;;
61322;SDS011;47203;48.428;11.974;2022-07-03T02:44:45;3.53;;;2.47;;
61322;SDS011;47203;48.428;11.974;2022-07-03T02:49:26;4.03;;;2.75;;
61322;SDS011;47203;48.428;11.974;2022-07-03T02:51:50;5.53;;;2.83;;
61322;SDS011;47203;48.428;11.974;2022-07-03T02:54:12;3.95;;;2.60;;
61322;SDS011;47203;48.428;11.974;2022-07-03T02:56:22;6.15;;;2.88;;
61322;SDS011;47203;48.428;11.974;2022-07-03T02:58:44;4.88;;;3.00;;
61322;SDS011;47203;48.428;11.974;2022-07-03T03:01:16;3.20;;;2.60;;
61322;SDS011;47203;48.428;11.974;2022-07-03T03:03:33;3.67;;;2.45;;
61322;SDS011;47203;48.428;11.974;2022-07-03T03:05:43;2.58;;;2.03;;
61322;SDS011;47203;48.428;11.974;2022-07-03T03:08:04;3.22;;;2.38;;
61322;SDS011;47203;48.428;11.974;2022-07-03T03:10:17;3.28;;;2.35;;
61322;SDS011;47203;48.428;11.974;2022-07-03T03:12:27;3.08;;;2.58;;
61322;SDS011;47203;48.428;11.974;2022-07-03T03:14:40;4.05;;;2.70;;
61322;SDS011;47203;48.428;11.974;2022-07-03T03:16:52;3.22;;;2.33;;
61322;SDS011;47203;48.428;11.974;2022-07-03T03:18:58;4.18;;;2.65;;
61322;SDS011;47203;48.428;11.974;2022-07-03T03:21:04;4.65;;;2.53;;
61322;SDS011;47203;48.428;11.974;2022-07-03T03:23:16;3.42;;;2.50;;
61322;SDS011;47203;48.428;11.974;2022-07-03T03:25:34;4.65;;;2.25;;
61322;SDS011;47203;48.428;11.974;2022-07-03T03:27:40;3.78;;;2.10;;
61322;SDS011;47203;48.428;11.974;2022-07-03T03:29:46;3.10;;;2.30;;
61322;SDS011;47203;48.428;11.974;2022-07-03T03:31:55;4.13;;;2.30;;
61322;SDS011;47203;48.428;11.974;2022-07-03T03:34:04;3.45;;;2.53;;
61322;SDS011;47203;48.428;11.974;2022-07-03T03:36:12;3.15;;;2.38;;
61322;SDS011;47203;48.428;11.974;2022-07-03T03:38:19;4.18;;;2.00;;
61322;SDS011;47203;48.428;11.974;2022-07-03T03:40:25;3.95;;;2.22;;
61322;SDS011;47203;48.428;11.974;2022-07-03T03:42:30;3.45;;;2.50;;
61322;SDS011;47203;48.428;11.974;2022-07-03T03:44:36;3.65;;;2.78;;
61322;SDS011;47203;48.428;11.974;2022-07-03T03:46:42;3.67;;;2.83;;
61322;SDS011;47203;48.428;11.974;2022-07-03T03:48:51;3.53;;;2.53;;
61322;SDS011;47203;48.428;11.974;2022-07-03T03:50:56;4.20;;;2.65;;
61322;SDS011;47203;48.428;11.974;2022-07-03T03:53:02;3.35;;;2.50;;
61322;SDS011;47203;48.428;11.974;2022-07-03T03:55:10;3.75;;;2.53;;
61322;SDS011;47203;48.428;11.974;2022-07-03T03:57:16;3.30;;;2.53;;
61322;SDS011;47203;48.428;11.974;2022-07-03T03:59:23;4.25;;;2.42;;
61322;SDS011;47203;48.428;11.974;2022-07-03T04:01:28;4.20;;;2.85;;
61322;SDS011;47203;48.428;11.974;2022-07-03T04:03:34;3.30;;;2.40;;
61322;SDS011;47203;48.428;11.974;2022-07-03T04:05:43;5.60;;;2.30;;
61322;SDS011;47203;48.428;11.974;2022-07-03T04:07:49;3.75;;;2.25;;
61322;SDS011;47203;48.428;11.974;2022-07-03T04:09:54;4.00;;;2.67;;
61322;SDS011;47203;48.428;11.974;2022-07-03T04:12:00;3.65;;;2.42;;
61322;SDS011;47203;48.428;11.974;2022-07-03T04:14:06;2.95;;;2.17;;
61322;SDS011;47203;48.428;11.974;2022-07-03T04:16:11;4.63;;;2.35;;
61322;SDS011;47203;48.428;11.974;2022-07-03T04:18:17;5.05;;;2.50;;
61322;SDS011;47203;48.428;11.974;2022-07-03T04:20:23;3.28;;;2.45;;
61322;SDS011;47203;48.428;11.974;2022-07-03T04:22:31;4.47;;;2.40;;
61322;SDS011;47203;48.428;11.974;2022-07-03T04:24:36;5.00;;;2.65;;
61322;SDS011;47203;48.428;11.974;2022-07-03T04:26:42;4.07;;;3.10;;
61322;SDS011;47203;48.428;11.974;2022-07-03T04:28:47;3.53;;;2.50;;
61322;SDS011;47203;48.428;11.974;2022-07-03T04:30:52;4.03;;;3.20;;
61322;SDS011;47203;48.428;11.974;2022-07-03T04:32:58;7.00;;;3.25;;
61322;SDS011;47203;48.428;11.974;2022-07-03T04:35:03;4.88;;;3.08;;
61322;SDS011;47203;48.428;11.974;2022-07-03T04:37:10;3.63;;;2.55;;
61322;SDS011;47203;48.428;11.974;2022-07-03T04:39:18;5.15;;;2.75;;
61322;SDS011;47203;48.428;11.974;2022-07-03T04:41:23;4.53;;;2.85;;
61322;SDS011;47203;48.428;11.974;2022-07-03T04:43:29;4.22;;;3.08;;
61322;SDS011;47203;48.428;11.974;2022-07-03T04:45:34;3.35;;;2.35;;
61322;SDS011;47203;48.428;11.974;2022-07-03T04:47:39;6.72;;;2.70;;
61322;SDS011;47203;48.428;11.974;2022-07-03T04:49:45;4.35;;;3.00;;
61322;SDS011;47203;48.428;11.974;2022-07-03T04:51:50;3.22;;;2.55;;
61322;SDS011;47203;48.428;11.974;2022-07-03T04:53:57;4.72;;;2.70;;
61322;SDS011;47203;48.428;11.974;2022-07-03T04:56:05;3.20;;;2.25;;
61322;SDS011;47203;48.428;11.974;2022-07-03T04:58:10;3.15;;;2.50;;
61322;SDS011;47203;48.428;11.974;2022-07-03T05:00:15;3.10;;;2.60;;
61322;SDS011;47203;48.428;11.974;2022-07-03T05:02:20;4.38;;;2.38;;
61322;SDS011;47203;48.428;11.974;2022-07-03T05:04:26;5.38;;;3.15;;
61322;SDS011;47203;48.428;11.974;2022-07-03T05:06:31;3.83;;;2.22;;
61322;SDS011;47203;48.428;11.974;2022-07-03T05:08:36;4.63;;;2.70;;
61322;SDS011;47203;48.428;11.974;2022-07-03T05:10:42;4.65;;;2.78;;
61322;SDS011;47203;48.428;11.974;2022-07-03T05:12:50;3.53;;;2.70;;
61322;SDS011;47203;48.428;11.974;2022-07-03T05:14:55;4.00;;;3.17;;
61322;SDS011;47203;48.428;11.974;2022-07-03T05:17:00;7.43;;;3.40;;
61322;SDS011;47203;48.428;11.974;2022-07-03T05:19:09;3.90;;;2.70;;
61322;SDS011;47203;48.428;11.974;2022-07-03T05:21:14;3.83;;;2.90;;
61322;SDS011;47203;48.428;11.974;2022-07-03T05:23:19;3.83;;;2.42;;
61322;SDS011;47203;48.428;11.974;2022-07-03T05:25:25;5.18;;;3.30;;
61322;SDS011;47203;48.428;11.974;2022-07-03T05:27:34;5.25;;;3.53;;
61322;SDS011;47203;48.428;11.974;2022-07-03T05:29:43;4.28;;;3.35;;
61322;SDS011;47203;48.428;11.974;2022-07-03T05:31:48;3.88;;;3.10;;
61322;SDS011;47203;48.428;11.974;2022-07-03T05:33:53;5.47;;;3.80;;
61322;SDS011;47203;48.428;11.974;2022-07-03T05:35:58;4.07;;;3.20;;
61322;SDS011;47203;48.428;11.974;2022-07-03T05:38:04;4.80;;;3.05;;
61322;SDS011;47203;48.428;11.974;2022-07-03T05:40:10;5.68;;;3.47;;
61322;SDS011;47203;48.428;11.974;2022-07-03T05:42:13;4.82;;;3.38;;
61322;SDS011;47203;48.428;11.974;2022-07-03T05:44:19;4.50;;;3.67;;
61322;SDS011;47203;48.428;11.974;2022-07-03T05:46:27;5.78;;;3.40;;
61322;SDS011;47203;48.428;11.974;2022-07-03T05:48:32;4.90;;;3.50;;
61322;SDS011;47203;48.428;11.974;2022-07-03T05:50:38;3.97;;;3.22;;
61322;SDS011;47203;48.428;11.974;2022-07-03T05:52:44;4.45;;;3.22;;
61322;SDS011;47203;48.428;11.974;2022-07-03T05:54:49;3.83;;;2.70;;
61322;SDS011;47203;48.428;11.974;2022-07-03T05:56:54;5.80;;;3.40;;
61322;SDS011;47203;48.428;11.974;2022-07-03T05:59:00;4.55;;;3.00;;
61322;SDS011;47203;48.428;11.974;2022-07-03T06:01:05;6.00;;;3.25;;
61322;SDS011;47203;48.428;11.974;2022-07-03T06:03:13;4.95;;;3.10;;
61322;SDS011;47203;48.428;11.974;2022-07-03T06:05:18;6.13;;;3.00;;
61322;SDS011;47203;48.428;11.974;2022-07-03T06:07:23;4.22;;;3.30;;
61322;SDS011;47203;48.428;11.974;2022-07-03T06:09:28;3.65;;;2.83;;
61322;SDS011;47203;48.428;11.974;2022-07-03T06:11:34;5.03;;;3.05;;
61322;SDS011;47203;48.428;11.974;2022-07-03T06:13:39;4.82;;;3.30;;
61322;SDS011;47203;48.428;11.974;2022-07-03T06:15:44;4.82;;;2.90;;
61322;SDS011;47203;48.428;11.974;2022-07-03T06:17:49;4.68;;;2.63;;
61322;SDS011;47203;48.428;11.974;2022-07-03T06:19:57;5.45;;;3.58;;
61322;SDS011;47203;48.428;11.974;2022-07-03T06:22:03;4.88;;;3.35;;
61322;SDS011;47203;48.428;11.974;2022-07-03T06:24:08;4.35;;;2.80;;
61322;SDS011;47203;48.428;11.974;2022-07-03T06:26:13;4.47;;;3.10;;
61322;SDS011;47203;48.428;11.974;2022-07-03T06:28:19;4.88;;;3.28;;
61322;SDS011;47203;48.428;11.974;2022-07-03T06:30:25;6.40;;;3.05;;
61322;SDS011;47203;48.428;11.974;2022-07-03T06:32:30;2.65;;;2.15;;
61322;SDS011;47203;48.428;11.974;2022-07-03T06:34:35;4.70;;;3.10;;
61322;SDS011;47203;48.428;11.974;2022-07-03T06:36:43;4.63;;;3.50;;
61322;SDS011;47203;48.428;11.974;2022-07-03T06:38:48;4.13;;;3.38;;
61322;SDS011;47203;48.428;11.974;2022-07-03T06:40:53;4.05;;;3.08;;
61322;SDS011;47203;48.428;11.974;2022-07-03T06:42:59;3.78;;;2.60;;
61322;SDS011;47203;48.428;11.974;2022-07-03T06:45:04;3.80;;;2.92;;
61322;SDS011;47203;48.428;11.974;2022-07-03T06:47:11;6.25;;;3.13;;
61322;SDS011;47203;48.428;11.974;2022-07-03T06:49:16;4.93;;;2.90;;
61322;SDS011;47203;48.428;11.974;2022-07-03T06:51:21;3.97;;;2.97;;
61322;SDS011;47203;48.428;11.974;2022-07-03T06:53:29;4.93;;;2.80;;
61322;SDS011;47203;48.428;11.974;2022-07-03T06:55:34;3.78;;;3.05;;
61322;SDS011;47203;48.428;11.974;2022-07-03T06:57:40;4.35;;;2.70;;
61322;SDS011;47203;48.428;11.974;2022-07-03T06:59:45;3.65;;;2.95;;
61322;SDS011;47203;48.428;11.974;2022-07-03T07:01:50;3.17;;;2.53;;
61322;SDS011;47203;48.428;11.974;2022-07-03T07:03:55;4.95;;;2.83;;
61322;SDS011;47203;48.428;11.974;2022-07-03T07:06:08;3.70;;;2.92;;
61322;SDS011;47203;48.428;11.974;2022-07-03T07:08:13;4.63;;;3.40;;
61322;SDS011;47203;48.428;11.974;2022-07-03T07:10:21;5.35;;;3.50;;
61322;SDS011;47203;48.428;11.974;2022-07-03T07:12:29;5.32;;;3.00;;
61322;SDS011;47203;48.428;11.974;2022-07-03T07:14:39;4.45;;;2.35;;
61322;SDS011;47203;48.428;11.974;2022-07-03T07:16:44;4.88;;;3.50;;
61322;SDS011;47203;48.428;11.974;2022-07-03T07:18:50;3.50;;;2.60;;
61322;SDS011;47203;48.428;11.974;2022-07-03T07:20:55;3.58;;;2.75;;
61322;SDS011;47203;48.428;11.974;2022-07-03T07:23:00;4.15;;;2.60;;
61322;SDS011;47203;48.428;11.974;2022-07-03T07:25:06;3.78;;;2.35;;
61322;SDS011;47203;48.428;11.974;2022-07-03T07:27:14;3.42;;;2.53;;
61322;SDS011;47203;48.428;11.974;2022-07-03T07:29:19;4.68;;;2.40;;
61322;SDS011;47203;48.428;11.974;2022-07-03T07:31:24;2.78;;;2.17;;
61322;SDS011;47203;48.428;11.974;2022-07-03T07:33:30;5.65;;;2.45;;
61322;SDS011;47203;48.428;11.974;2022-07-03T07:35:35;3.40;;;2.20;;
61322;SDS011;47203;48.428;11.974;2022-07-03T07:37:41;6.68;;;2.50;;
61322;SDS011;47203;48.428;11.974;2022-07-03T07:39:46;2.35;;;1.80;;
61322;SDS011;47203;48.428;11.974;2022-07-03T07:41:51;3.40;;;2.20;;
61322;SDS011;47203;48.428;11.974;2022-07-03T07:43:59;2.70;;;2.10;;
61322;SDS011;47203;48.428;11.974;2022-07-03T07:46:04;2.85;;;1.90;;
61322;SDS011;47203;48.428;11.974;2022-07-03T07:48:10;2.75;;;1.90;;
61322;SDS011;47203;48.428;11.974;2022-07-03T07:50:15;5.25;;;2.10;;
61322;SDS011;47203;48.428;11.974;2022-07-03T07:52:20;3.67;;;2.20;;
61322;SDS011;47203;48.428;11.974;2022-07-03T07:54:26;2.97;;;2.05;;
61322;SDS011;47203;48.428;11.974;2022-07-03T07:56:31;2.60;;;2.00;;
61322;SDS011;47203;48.428;11.974;2022-07-03T07:58:37;2.13;;;1.60;;
61322;SDS011;47203;48.428;11.974;2022-07-03T08:00:45;2.72;;;1.92;;
61322;SDS011;47203;48.428;11.974;2022-07-03T08:03:02;3.75;;;2.00;;
61322;SDS011;47203;48.428;11.974;2022-07-03T08:05:20;2.40;;;1.80;;
61322;SDS011;47203;48.428;11.974;2022-07-03T08:07:41;2.90;;;1.65;;
61322;SDS011;47203;48.428;11.974;2022-07-03T08:09:46;3.03;;;1.60;;
61322;SDS011;47203;48.428;11.974;2022-07-03T08:11:54;2.05;;;1.63;;
61322;SDS011;47203;48.428;11.974;2022-07-03T08:13:59;2.30;;;1.58;;
61322;SDS011;47203;48.428;11.974;2022-07-03T08:16:09;1.98;;;1.38;;
61322;SDS011;47203;48.428;11.974;2022-07-03T08:18:14;2.08;;;1.33;;
61322;SDS011;47203;48.428;11.974;2022-07-03T08:20:20;2.58;;;1.65;;
61322;SDS011;47203;48.428;11.974;2022-07-03T08:22:25;2.60;;;1.52;;
61322;SDS011;47203;48.428;11.974;2022-07-03T08:24:30;2.13;;;1.27;;
61322;SDS011;47203;48.428;11.974;2022-07-03T08:26:36;2.40;;;1.33;;
61322;SDS011;47203;48.428;11.974;2022-07-03T08:28:41;2.28;;;1.55;;
61322;SDS011;47203;48.428;11.974;2022-07-03T08:30:46;1.83;;;1.48;;
61322;SDS011;47203;48.428;11.974;2022-07-03T08:32:56;1.75;;;1.48;;
61322;SDS011;47203;48.428;11.974;2022-07-03T08:35:03;1.83;;;1.35;;
61322;SDS011;47203;48.428;11.974;2022-07-03T08:37:10;1.77;;;1.20;;
61322;SDS011;47203;48.428;11.974;2022-07-03T08:39:15;2.08;;;1.27;;
61322;SDS011;47203;48.428;11.974;2022-07-03T08:41:21;2.53;;;1.30;;
61322;SDS011;47203;48.428;11.974;2022-07-03T08:43:27;2.92;;;1.60;;
61322;SDS011;47203;48.428;11.974;2022-07-03T08:45:33;2.40;;;1.50;;
61322;SDS011;47203;48.428;11.974;2022-07-03T08:47:42;1.40;;;1.17;;
61322;SDS011;47203;48.428;11.974;2022-07-03T08:49:51;2.70;;;1.50;;
61322;SDS011;47203;48.428;11.974;2022-07-03T08:51:57;2.00;;;1.40;;
61322;SDS011;47203;48.428;11.974;2022-07-03T08:54:08;2.03;;;1.35;;
61322;SDS011;47203;48.428;11.974;2022-07-03T08:56:14;3.58;;;1.60;;
61322;SDS011;47203;48.428;11.974;2022-07-03T08:58:20;1.40;;;1.10;;
61322;SDS011;47203;48.428;11.974;2022-07-03T09:00:27;2.05;;;1.30;;
61322;SDS011;47203;48.428;11.974;2022-07-03T09:02:33;1.83;;;1.20;;
61322;SDS011;47203;48.428;11.974;2022-07-03T09:04:40;2.95;;;0.98;;
61322;SDS011;47203;48.428;11.974;2022-07-03T09:06:48;2.50;;;1.25;;
61322;SDS011;47203;48.428;11.974;2022-07-03T09:08:57;2.72;;;1.30;;
61322;SDS011;47203;48.428;11.974;2022-07-03T09:11:02;2.30;;;1.20;;
61322;SDS011;47203;48.428;11.974;2022-07-03T09:13:08;2.85;;;1.60;;
61322;SDS011;47203;48.428;11.974;2022-07-03T09:15:16;2.20;;;1.40;;
61322;SDS011;47203;48.428;11.974;2022-07-03T09:17:23;4.40;;;1.73;;
61322;SDS011;47203;48.428;11.974;2022-07-03T09:19:40;2.53;;;1.58;;
61322;SDS011;47203;48.428;11.974;2022-07-03T09:21:51;2.97;;;1.20;;
61322;SDS011;47203;48.428;11.974;2022-07-03T09:23:56;1.95;;;1.30;;
61322;SDS011;47203;48.428;11.974;2022-07-03T09:26:12;2.83;;;1.30;;
61322;SDS011;47203;48.428;11.974;2022-07-03T09:28:21;4.70;;;1.30;;
61322;SDS011;47203;48.428;11.974;2022-07-03T09:30:27;2.72;;;1.20;;
61322;SDS011;47203;48.428;11.974;2022-07-03T09:32:40;2.08;;;1.10;;
61322;SDS011;47203;48.428;11.974;2022-07-03T09:34:47;1.42;;;1.20;;
61322;SDS011;47203;48.428;11.974;2022-07-03T09:36:55;1.55;;;1.15;;
61322;SDS011;47203;48.428;11.974;2022-07-03T09:39:00;1.52;;;1.00;;
61322;SDS011;47203;48.428;11.974;2022-07-03T09:41:15;1.83;;;1.30;;
61322;SDS011;47203;48.428;11.974;2022-07-03T09:43:24;1.80;;;1.02;;
61322;SDS011;47203;48.428;11.974;2022-07-03T09:47:55;1.38;;;1.00;;
61322;SDS011;47203;48.428;11.974;2022-07-03T09:50:21;1.83;;;1.15;;
61322;SDS011;47203;48.428;11.974;2022-07-03T09:52:29;1.02;;;0.80;;
61322;SDS011;47203;48.428;11.974;2022-07-03T09:54:38;2.67;;;1.20;;
61322;SDS011;47203;48.428;11.974;2022-07-03T09:56:45;2.67;;;1.00;;
61322;SDS011;47203;48.428;11.974;2022-07-03T10:01:15;3.53;;;1.05;;
61322;SDS011;47203;48.428;11.974;2022-07-03T10:03:21;1.75;;;0.82;;
61322;SDS011;47203;48.428;11.974;2022-07-03T10:05:28;1.08;;;0.80;;
61322;SDS011;47203;48.428;11.974;2022-07-03T10:07:44;1.23;;;0.80;;
61322;SDS011;47203;48.428;11.974;2022-07-03T10:09:55;1.63;;;0.77;;
61322;SDS011;47203;48.428;11.974;2022-07-03T10:12:02;1.77;;;1.00;;
61322;SDS011;47203;48.428;11.974;2022-07-03T10:14:09;1.23;;;0.75;;
61322;SDS011;47203;48.428;11.974;2022-07-03T10:16:20;1.83;;;0.80;;
61322;SDS011;47203;48.428;11.974;2022-07-03T10:18:26;2.60;;;0.98;;
61322;SDS011;47203;48.428;11.974;2022-07-03T10:20:38;2.00;;;1.00;;
61322;SDS011;47203;48.428;11.974;2022-07-03T10:22:47;1.48;;;0.95;;
61322;SDS011;47203;48.428;11.974;2022-07-03T10:24:54;1.98;;;0.98;;
61322;SDS011;47203;48.428;11.974;2022-07-03T10:27:00;1.20;;;0.80;;
61322;SDS011;47203;48.428;11.974;2022-07-03T10:29:05;0.70;;;0.70;;
61322;SDS011;47203;48.428;11.974;2022-07-03T10:31:20;1.15;;;0.77;;
61322;SDS011;47203;48.428;11.974;2022-07-03T10:33:25;1.15;;;0.88;;
61322;SDS011;47203;48.428;11.974;2022-07-03T10:35:34;1.23;;;0.77;;
61322;SDS011;47203;48.428;11.974;2022-07-03T10:38:03;0.93;;;0.80;;
61322;SDS011;47203;48.428;11.974;2022-07-03T10:40:31;2.83;;;1.00;;
61322;SDS011;47203;48.428;11.974;2022-07-03T10:43:01;1.05;;;0.80;;
61322;SDS011;47203;48.428;11.974;2022-07-03T10:45:32;1.02;;;0.68;;
61322;SDS011;47203;48.428;11.974;2022-07-03T10:47:39;1.35;;;0.80;;
61322;SDS011;47203;48.428;11.974;2022-07-03T10:49:59;1.83;;;0.70;;
61322;SDS011;47203;48.428;11.974;2022-07-03T10:52:05;1.35;;;0.85;;
61322;SDS011;47203;48.428;11.974;2022-07-03T10:54:17;1.80;;;0.98;;
61322;SDS011;47203;48.428;11.974;2022-07-03T10:56:24;1.13;;;0.80;;
61322;SDS011;47203;48.428;11.974;2022-07-03T10:58:29;2.22;;;0.80;;
61322;SDS011;47203;48.428;11.974;2022-07-03T11:02:59;1.65;;;0.77;;
61322;SDS011;47203;48.428;11.974;2022-07-03T11:05:17;2.13;;;0.90;;
61322;SDS011;47203;48.428;11.974;2022-07-03T11:07:24;1.25;;;0.80;;
61322;SDS011;47203;48.428;11.974;2022-07-03T11:09:34;1.75;;;0.75;;
61322;SDS011;47203;48.428;11.974;2022-07-03T11:11:42;1.10;;;0.90;;
61322;SDS011;47203;48.428;11.974;2022-07-03T11:16:25;0.88;;;0.60;;
61322;SDS011;47203;48.428;11.974;2022-07-03T11:18:37;1.03;;;0.70;;
61322;SDS011;47203;48.428;11.974;2022-07-03T11:23:33;1.27;;;0.80;;
61322;SDS011;47203;48.428;11.974;2022-07-03T11:25:51;1.10;;;0.63;;
61322;SDS011;47203;48.428;11.974;2022-07-03T11:27:58;0.77;;;0.55;;
61322;SDS011;47203;48.428;11.974;2022-07-03T11:30:04;0.68;;;0.60;;
61322;SDS011;47203;48.428;11.974;2022-07-03T11:34:59;0.98;;;0.50;;
61322;SDS011;47203;48.428;11.974;2022-07-03T11:37:05;1.08;;;0.50;;
61322;SDS011;47203;48.428;11.974;2022-07-03T11:39:13;0.85;;;0.57;;
61322;SDS011;47203;48.428;11.974;2022-07-03T11:41:25;3.22;;;1.02;;
61322;SDS011;47203;48.428;11.974;2022-07-03T11:43:32;1.45;;;0.70;;
61322;SDS011;47203;48.428;11.974;2022-07-03T11:45:38;1.52;;;0.60;;
61322;SDS011;47203;48.428;11.974;2022-07-03T11:47:45;1.55;;;0.70;;
61322;SDS011;47203;48.428;11.974;2022-07-03T11:49:53;1.80;;;0.60;;
61322;SDS011;47203;48.428;11.974;2022-07-03T11:52:00;1.25;;;0.47;;
61322;SDS011;47203;48.428;11.974;2022-07-03T11:54:08;1.08;;;0.70;;
61322;SDS011;47203;48.428;11.974;2022-07-03T11:56:13;0.75;;;0.55;;
61322;SDS011;47203;48.428;11.974;2022-07-03T11:58:21;1.95;;;0.80;;
61322;SDS011;47203;48.428;11.974;2022-07-03T12:00:28;1.08;;;0.70;;
61322;SDS011;47203;48.428;11.974;2022-07-03T12:02:47;0.63;;;0.40;;
61322;SDS011;47203;48.428;11.974;2022-07-03T12:04:53;1.17;;;0.50;;
61322;SDS011;47203;48.428;11.974;2022-07-03T12:06:59;0.73;;;0.63;;
61322;SDS011;47203;48.428;11.974;2022-07-03T12:09:12;0.60;;;0.50;;
61322;SDS011;47203;48.428;11.974;2022-07-03T12:11:19;0.50;;;0.40;;
61322;SDS011;47203;48.428;11.974;2022-07-03T12:13:27;1.00;;;0.65;;
61322;SDS011;47203;48.428;11.974;2022-07-03T12:15:35;0.70;;;0.30;;
61322;SDS011;47203;48.428;11.974;2022-07-03T12:17:43;1.20;;;0.63;;
61322;SDS011;47203;48.428;11.974;2022-07-03T12:19:50;0.93;;;0.47;;
61322;SDS011;47203;48.428;11.974;2022-07-03T12:21:57;0.93;;;0.50;;
61322;SDS011;47203;48.428;11.974;2022-07-03T12:24:08;1.48;;;0.77;;
61322;SDS011;47203;48.428;11.974;2022-07-03T12:26:28;1.02;;;0.75;;
61322;SDS011;47203;48.428;11.974;2022-07-03T12:28:38;1.63;;;0.80;;
61322;SDS011;47203;48.428;11.974;2022-07-03T12:30:48;1.10;;;0.80;;
61322;SDS011;47203;48.428;11.974;2022-07-03T12:32:54;0.85;;;0.45;;
61322;SDS011;47203;48.428;11.974;2022-07-03T12:35:00;0.73;;;0.60;;
61322;SDS011;47203;48.428;11.974;2022-07-03T12:37:06;1.20;;;0.45;;
61322;SDS011;47203;48.428;11.974;2022-07-03T12:39:11;0.80;;;0.32;;
61322;SDS011;47203;48.428;11.974;2022-07-03T12:41:16;0.52;;;0.30;;
61322;SDS011;47203;48.428;11.974;2022-07-03T12:43:22;0.80;;;0.50;;
61322;SDS011;47203;48.428;11.974;2022-07-03T12:45:30;0.38;;;0.30;;
61322;SDS011;47203;48.428;11.974;2022-07-03T12:47:36;1.50;;;0.57;;
61322;SDS011;47203;48.428;11.974;2022-07-03T12:49:41;0.85;;;0.60;;
61322;SDS011;47203;48.428;11.974;2022-07-03T12:51:48;2.22;;;0.55;;
61322;SDS011;47203;48.428;11.974;2022-07-03T12:53:54;1.00;;;0.50;;
61322;SDS011;47203;48.428;11.974;2022-07-03T12:56:00;1.10;;;0.45;;
61322;SDS011;47203;48.428;11.974;2022-07-03T12:58:09;0.70;;;0.40;;
61322;SDS011;47203;48.428;11.974;2022-07-03T13:00:31;1.52;;;0.30;;
61322;SDS011;47203;48.428;11.974;2022-07-03T13:02:51;1.10;;;0.38;;
61322;SDS011;47203;48.428;11.974;2022-07-03T13:04:57;0.47;;;0.40;;